createdAt,value
2022-12-29T00:04:16.613Z,10.75
2022-12-29T00:09:19.664Z,10.78
2022-12-29T00:14:39.845Z,10.68
2022-12-29T00:20:01.777Z,10.63
2022-12-29T00:25:22.934Z,10.58
2022-12-29T00:30:43.619Z,10.46
2022-12-29T00:35:50.035Z,10.42
2022-12-29T00:41:10.417Z,10.39
2022-12-29T00:46:19.701Z,10.36
2022-12-29T00:51:27.428Z,10.32
2022-12-29T00:56:30.439Z,10.32
2022-12-29T01:01:33.678Z,10.30
2022-12-29T01:06:39.952Z,10.33
2022-12-29T01:11:43.911Z,10.38
2022-12-29T01:16:47.283Z,10.47
2022-12-29T01:21:52.044Z,10.41
2022-12-29T01:26:56.500Z,10.47
2022-12-29T01:31:59.416Z,10.52
2022-12-29T01:37:04.536Z,10.52
2022-12-29T01:42:07.743Z,10.50
2022-12-29T01:47:10.884Z,10.43
2022-12-29T01:52:15.619Z,10.24
2022-12-29T01:57:22.876Z,10.21
2022-12-29T02:02:26.631Z,10.19
2022-12-29T02:07:31.254Z,10.14
2022-12-29T02:12:34.309Z,9.93
2022-12-29T02:18:02.571Z,9.95
2022-12-29T02:23:21.408Z,9.82
2022-12-29T02:28:49.743Z,9.93
2022-12-29T02:34:01.883Z,10.07
2022-12-29T02:39:12.122Z,10.13
2022-12-29T02:44:41.233Z,10.17
2022-12-29T02:49:54.852Z,10.20
2022-12-29T02:54:57.995Z,10.25
2022-12-29T03:00:04.834Z,10.17
2022-12-29T03:05:19.738Z,10.17
2022-12-29T03:10:31.573Z,10.08
2022-12-29T03:15:54.872Z,9.97
2022-12-29T03:21:05.796Z,9.89
2022-12-29T03:26:11.625Z,9.85
2022-12-29T03:31:16.681Z,9.85
2022-12-29T03:36:26.281Z,9.90
2022-12-29T03:41:32.699Z,9.85
2022-12-29T03:46:37.762Z,9.81
2022-12-29T03:51:42.281Z,9.91
2022-12-29T03:56:45.253Z,10.06
2022-12-29T04:01:50.127Z,10.08
2022-12-29T04:06:54.672Z,9.82
2022-12-29T04:11:57.978Z,10.05
2022-12-29T04:17:01.781Z,9.94
2022-12-29T04:22:07.290Z,9.85
2022-12-29T04:27:11.097Z,9.85
2022-12-29T04:32:14.083Z,9.91
2022-12-29T04:37:24.128Z,10.01
2022-12-29T04:42:27.413Z,10.05
2022-12-29T04:47:31.698Z,10.06
2022-12-29T04:52:58.813Z,9.97
2022-12-29T04:58:03.246Z,9.88
2022-12-29T05:03:09.234Z,9.83
2022-12-29T05:08:16.937Z,9.97
2022-12-29T05:13:20.208Z,9.90
2022-12-29T05:18:24.621Z,9.86
2022-12-29T05:23:29.166Z,9.85
2022-12-29T05:28:36.640Z,9.86
2022-12-29T05:33:53.385Z,9.89
2022-12-29T05:38:57.814Z,9.74
2022-12-29T05:44:01.451Z,9.78
2022-12-29T05:49:04.675Z,9.81
2022-12-29T05:54:27.612Z,9.84
2022-12-29T05:59:32.860Z,9.72
2022-12-29T06:04:36.201Z,9.63
2022-12-29T06:09:40.965Z,9.54
2022-12-29T06:15:08.377Z,9.67
2022-12-29T06:20:13.904Z,9.58
2022-12-29T06:25:18.794Z,9.63
2022-12-29T06:30:21.692Z,9.78
2022-12-29T06:35:24.545Z,9.96
2022-12-29T06:40:29.735Z,9.95
2022-12-29T06:46:05.051Z,9.95
2022-12-29T06:51:08.048Z,9.84
2022-12-29T06:56:12.312Z,9.71
2022-12-29T07:01:15.248Z,9.53
2022-12-29T07:06:18.131Z,9.45
2022-12-29T07:11:22.509Z,9.50
2022-12-29T07:16:25.488Z,9.54
2022-12-29T07:21:28.511Z,9.59
2022-12-29T07:26:36.299Z,9.70
2022-12-29T07:31:39.615Z,9.82
2022-12-29T07:36:42.614Z,9.90
2022-12-29T07:41:48.521Z,9.84
2022-12-29T07:46:57.580Z,9.95
2022-12-29T07:52:00.920Z,9.89
2022-12-29T07:57:05.628Z,9.93
2022-12-29T08:02:13.434Z,9.91
2022-12-29T08:07:16.467Z,9.89
2022-12-29T08:12:23.228Z,9.91
2022-12-29T08:17:26.112Z,9.95
2022-12-29T08:22:29.036Z,10.04
2022-12-29T08:27:33.711Z,10.13
2022-12-29T08:32:37.208Z,9.86
2022-12-29T08:37:40.265Z,9.73
2022-12-29T08:42:44.650Z,9.53
2022-12-29T08:47:47.620Z,9.29
2022-12-29T08:52:50.708Z,9.12
2022-12-29T08:57:55.085Z,9.00
2022-12-29T09:02:58.413Z,8.88
2022-12-29T09:08:01.774Z,8.99
2022-12-29T09:13:06.381Z,9.08
2022-12-29T09:18:11.974Z,9.18
2022-12-29T09:23:16.663Z,9.21
2022-12-29T09:28:21.334Z,9.17
2022-12-29T09:33:24.478Z,9.12
2022-12-29T09:38:31.691Z,9.10
2022-12-29T09:44:04.397Z,9.01
2022-12-29T09:49:19.004Z,9.33
2022-12-29T09:54:41.549Z,9.29
2022-12-29T09:59:47.626Z,9.37
2022-12-29T10:04:50.693Z,9.50
2022-12-29T10:10:02.055Z,9.49
2022-12-29T10:15:15.805Z,9.49
2022-12-29T10:20:29.753Z,9.77
2022-12-29T10:25:35.133Z,9.57
2022-12-29T10:30:43.171Z,9.54
2022-12-29T10:35:47.700Z,9.67
2022-12-29T10:40:56.751Z,9.76
2022-12-29T10:46:06.505Z,9.84
2022-12-29T10:51:10.379Z,9.74
2022-12-29T10:56:18.071Z,9.76
2022-12-29T11:01:22.663Z,9.70
2022-12-29T11:06:27.720Z,9.75
2022-12-29T11:11:35.944Z,9.79
2022-12-29T11:16:40.381Z,10.02
2022-12-29T11:21:46.198Z,10.75
2022-12-29T11:26:51.851Z,10.24
2022-12-29T11:31:58.636Z,10.01
2022-12-29T11:37:04.268Z,9.87
2022-12-29T11:42:10.556Z,9.92
2022-12-29T11:47:25.064Z,9.89
2022-12-29T11:52:34.315Z,9.92
2022-12-29T11:57:37.947Z,10.11
2022-12-29T12:02:50.199Z,10.06
2022-12-29T12:08:21.550Z,9.89
2022-12-29T12:13:28.422Z,9.90
2022-12-29T12:18:38.769Z,10.06
2022-12-29T12:24:09.793Z,10.22
2022-12-29T12:29:18.069Z,10.43
2022-12-29T12:34:27.079Z,10.41
2022-12-29T12:39:36.163Z,10.19
2022-12-29T12:44:46.634Z,10.15
2022-12-29T12:50:35.821Z,10.05
2022-12-29T12:55:51.830Z,9.90
2022-12-29T13:01:05.616Z,10.02
2022-12-29T13:06:18.580Z,10.05
2022-12-29T13:11:27.546Z,9.96
2022-12-29T13:16:36.965Z,9.82
2022-12-29T13:22:01.917Z,9.81
2022-12-29T13:27:16.764Z,9.86
2022-12-29T13:32:25.944Z,9.78
2022-12-29T13:37:32.370Z,9.79
2022-12-29T13:42:36.695Z,9.80
2022-12-29T13:47:43.142Z,9.78
2022-12-29T13:52:56.839Z,9.69
2022-12-29T13:58:07.285Z,9.72
2022-12-29T14:03:28.177Z,9.64
2022-12-29T14:08:36.457Z,9.83
2022-12-29T14:14:02.496Z,9.86
2022-12-29T14:19:30.989Z,9.71
2022-12-29T14:24:55.877Z,9.73
2022-12-29T14:30:53.959Z,9.72
2022-12-29T14:36:25.340Z,9.61
2022-12-29T14:42:10.909Z,9.60
2022-12-29T14:47:36.086Z,9.52
2022-12-29T14:53:04.205Z,9.31
2022-12-29T14:58:31.995Z,9.06
2022-12-29T15:04:02.122Z,8.97
2022-12-29T15:09:30.683Z,8.81
2022-12-29T15:14:56.968Z,8.54
2022-12-29T15:20:26.439Z,8.51
2022-12-29T15:25:53.899Z,8.49
2022-12-29T15:31:24.890Z,8.47
2022-12-29T15:36:56.310Z,8.50
2022-12-29T15:42:32.699Z,8.41
2022-12-29T15:47:59.852Z,8.29
2022-12-29T15:53:30.166Z,8.36
2022-12-29T15:58:55.164Z,8.32
2022-12-29T16:04:19.769Z,8.30
2022-12-29T16:09:45.250Z,8.34
2022-12-29T16:15:09.771Z,8.32
2022-12-29T16:20:42.157Z,8.36
2022-12-29T16:26:08.841Z,8.45
2022-12-29T16:31:36.787Z,8.45
2022-12-29T16:37:02.657Z,8.47
2022-12-29T16:42:37.701Z,8.50
2022-12-29T16:48:17.479Z,8.52
2022-12-29T16:53:43.309Z,8.45
2022-12-29T16:59:08.750Z,8.45
2022-12-29T17:04:32.110Z,8.37
2022-12-29T17:09:56.689Z,8.26
2022-12-29T17:15:25.730Z,8.17
2022-12-29T17:21:14.404Z,8.16
2022-12-29T17:26:39.331Z,8.21
2022-12-29T17:32:03.073Z,8.17
2022-12-29T17:37:37.634Z,8.11
2022-12-29T17:43:02.119Z,8.04
2022-12-29T17:48:26.035Z,8.03
2022-12-29T17:53:50.362Z,7.99
2022-12-29T17:59:15.331Z,8.04
2022-12-29T18:04:38.627Z,8.06
2022-12-29T18:09:41.822Z,8.13
2022-12-29T18:14:46.144Z,8.03
2022-12-29T18:19:50.611Z,8.09
2022-12-29T18:24:53.655Z,8.00
2022-12-29T18:29:57.856Z,7.98
2022-12-29T18:35:00.735Z,8.03
2022-12-29T18:40:03.608Z,7.92
2022-12-29T18:45:16.480Z,7.89
2022-12-29T18:50:27.043Z,7.96
2022-12-29T18:55:30.969Z,8.01
2022-12-29T19:00:35.576Z,8.02
2022-12-29T19:05:40.503Z,8.13
2022-12-29T19:10:44.681Z,8.18
2022-12-29T19:15:49.067Z,8.13
2022-12-29T19:20:53.089Z,8.21
2022-12-29T19:25:56.451Z,8.29
2022-12-29T19:31:02.724Z,8.31
2022-12-29T19:36:06.350Z,8.30
2022-12-29T19:41:09.445Z,8.27
2022-12-29T19:46:17.038Z,8.27
2022-12-29T19:51:19.992Z,8.25
2022-12-29T19:56:26.250Z,8.30
2022-12-29T20:01:31.629Z,8.32
2022-12-29T20:06:34.479Z,8.28
2022-12-29T20:11:37.310Z,8.20
2022-12-29T20:17:08.865Z,8.22
2022-12-29T20:22:05.243Z,8.08
2022-12-29T20:27:10.031Z,7.88
2022-12-29T20:32:15.985Z,7.87
2022-12-29T20:37:20.617Z,7.73
2022-12-29T20:42:23.409Z,7.72
2022-12-29T20:47:27.635Z,7.76
2022-12-29T20:52:30.395Z,7.90
2022-12-29T20:57:57.582Z,8.12
2022-12-29T21:03:03.161Z,8.26
2022-12-29T21:08:06.659Z,8.17
2022-12-29T21:13:09.590Z,8.20
2022-12-29T21:18:14.721Z,8.30
2022-12-29T21:23:17.606Z,8.15
2022-12-29T21:28:21.437Z,7.92
2022-12-29T21:33:25.847Z,7.94
2022-12-29T21:38:29.217Z,7.93
2022-12-29T21:43:32.187Z,7.89
2022-12-29T21:48:36.567Z,7.78
2022-12-29T21:53:41.779Z,7.76
2022-12-29T21:59:04.067Z,7.89
2022-12-29T22:04:26.104Z,7.96
2022-12-29T22:09:46.946Z,8.12
2022-12-29T22:14:50.148Z,8.16
2022-12-29T22:19:54.372Z,8.08
2022-12-29T22:24:57.309Z,8.05
2022-12-29T22:30:00.217Z,8.21
2022-12-29T22:35:08.003Z,8.25
2022-12-29T22:40:12.770Z,8.25
2022-12-29T22:45:16.102Z,8.30
2022-12-29T22:50:20.349Z,8.28
2022-12-29T22:55:23.379Z,8.19
2022-12-29T23:00:26.249Z,8.13
2022-12-29T23:05:30.503Z,8.09
2022-12-29T23:10:33.363Z,7.97
2022-12-29T23:15:36.354Z,7.94
2022-12-29T23:20:40.729Z,8.09
2022-12-29T23:25:43.660Z,8.09
2022-12-29T23:30:46.842Z,8.08
2022-12-29T23:35:51.159Z,8.22
2022-12-29T23:40:54.422Z,8.34
2022-12-29T23:45:57.299Z,8.32
2022-12-29T23:51:01.753Z,8.30
2022-12-29T23:56:06.079Z,8.23
